createdAt,value
2016-08-23T00:00:53.923Z,0
2016-08-23T00:01:53.907Z,0
2016-08-23T00:02:54.461Z,0
2016-08-23T00:03:53.896Z,0
2016-08-23T00:04:54.418Z,0
2016-08-23T00:05:53.904Z,0
2016-08-23T00:06:53.865Z,0
2016-08-23T00:07:53.870Z,0
2016-08-23T00:08:53.867Z,0
2016-08-23T00:09:53.975Z,0
2016-08-23T00:10:53.979Z,0
2016-08-23T00:11:53.951Z,0
2016-08-23T00:12:53.925Z,0
2016-08-23T00:13:53.933Z,0
2016-08-23T00:14:54.420Z,0
2016-08-23T00:15:53.852Z,0
2016-08-23T00:16:53.856Z,0
2016-08-23T00:17:53.875Z,0
2016-08-23T00:18:53.869Z,0
2016-08-23T00:19:53.951Z,0
2016-08-23T00:20:53.845Z,0
2016-08-23T00:21:53.921Z,0
2016-08-23T00:22:53.873Z,0
2016-08-23T00:23:54.370Z,0
2016-08-23T00:24:53.876Z,0
2016-08-23T00:25:53.863Z,0
2016-08-23T00:26:53.794Z,0
2016-08-23T00:27:53.837Z,0
2016-08-23T00:28:53.822Z,0
2016-08-23T00:29:53.858Z,0
2016-08-23T00:30:53.914Z,0
2016-08-23T00:31:53.843Z,0
2016-08-23T00:32:53.864Z,0
2016-08-23T00:33:53.848Z,0
2016-08-23T00:34:53.879Z,0
2016-08-23T00:35:53.874Z,0
2016-08-23T00:36:53.872Z,0
2016-08-23T00:37:53.906Z,0
2016-08-23T00:38:53.921Z,0
2016-08-23T00:39:53.798Z,0
2016-08-23T00:40:53.805Z,0
2016-08-23T00:41:53.834Z,0
2016-08-23T00:42:53.853Z,0
2016-08-23T00:43:53.853Z,0
2016-08-23T00:44:53.869Z,0
2016-08-23T00:45:53.875Z,0
2016-08-23T00:46:53.848Z,0
2016-08-23T00:47:54.502Z,0
2016-08-23T00:48:53.911Z,0
2016-08-23T00:49:53.882Z,0
2016-08-23T00:50:53.738Z,0
2016-08-23T00:51:53.794Z,0
2016-08-23T00:52:53.779Z,0
2016-08-23T00:53:53.817Z,0
2016-08-23T00:54:54.564Z,0
2016-08-23T00:55:53.802Z,0
2016-08-23T00:56:53.820Z,0
2016-08-23T00:57:53.876Z,0
2016-08-23T00:58:53.860Z,0
2016-08-23T00:59:53.723Z,0
2016-08-23T01:00:53.697Z,0
2016-08-23T01:01:53.680Z,0
2016-08-23T01:02:53.796Z,0
2016-08-23T01:03:53.781Z,0
2016-08-23T01:04:53.772Z,0
2016-08-23T01:05:53.781Z,0
2016-08-23T01:06:53.850Z,0
2016-08-23T01:07:53.833Z,0
2016-08-23T01:08:53.659Z,0
2016-08-23T01:09:53.649Z,0
2016-08-23T01:10:53.683Z,0
2016-08-23T01:11:54.496Z,0
2016-08-23T01:12:53.792Z,0
2016-08-23T01:13:53.659Z,0
2016-08-23T01:14:53.787Z,0
2016-08-23T01:15:54.374Z,0
2016-08-23T01:16:53.751Z,0
2016-08-23T01:17:53.767Z,0
2016-08-23T01:18:53.667Z,0
2016-08-23T01:19:53.673Z,0
2016-08-23T01:20:53.667Z,0
2016-08-23T01:21:53.692Z,0
2016-08-23T01:22:53.654Z,0
2016-08-23T01:23:53.748Z,0
2016-08-23T01:24:53.641Z,0
2016-08-23T01:25:53.802Z,0
2016-08-23T01:26:53.659Z,0
2016-08-23T01:27:53.667Z,0
2016-08-23T01:28:53.594Z,0
2016-08-23T01:29:53.596Z,0
2016-08-23T01:30:53.610Z,0
2016-08-23T01:31:53.791Z,0
2016-08-23T01:32:53.741Z,0
2016-08-23T01:33:53.638Z,0
2016-08-23T01:34:54.393Z,0
2016-08-23T01:35:53.643Z,0
2016-08-23T01:36:53.638Z,0
2016-08-23T01:37:53.660Z,0
2016-08-23T01:38:53.615Z,0
2016-08-23T01:39:53.607Z,0
2016-08-23T01:40:53.618Z,0
2016-08-23T01:41:53.583Z,0
2016-08-23T01:42:53.596Z,0
2016-08-23T01:43:53.589Z,0
2016-08-23T01:44:53.782Z,0
2016-08-23T01:45:53.456Z,0
2016-08-23T01:46:53.530Z,0
2016-08-23T01:47:53.570Z,0
2016-08-23T01:48:53.599Z,0
2016-08-23T01:49:54.059Z,0
2016-08-23T01:50:53.450Z,0
2016-08-23T01:51:53.581Z,0
2016-08-23T01:52:53.632Z,0
2016-08-23T01:53:53.560Z,0
2016-08-23T01:54:53.429Z,0
2016-08-23T01:55:53.442Z,0
2016-08-23T01:56:53.415Z,0
2016-08-23T01:57:53.574Z,0
2016-08-23T01:58:53.448Z,0
2016-08-23T01:59:53.433Z,0
2016-08-23T02:00:53.420Z,0
2016-08-23T02:01:53.427Z,0
2016-08-23T02:02:53.421Z,0
2016-08-23T02:03:53.420Z,0
2016-08-23T02:04:54.776Z,0
2016-08-23T02:05:53.393Z,0
2016-08-23T02:06:53.435Z,0
2016-08-23T02:07:53.391Z,0
2016-08-23T02:08:53.413Z,0
2016-08-23T02:09:53.424Z,0
2016-08-23T02:10:53.392Z,0
2016-08-23T02:11:53.409Z,0
2016-08-23T02:12:53.990Z,0
2016-08-23T02:13:53.437Z,0
2016-08-23T02:14:53.388Z,0
2016-08-23T02:15:53.266Z,0
2016-08-23T02:16:53.730Z,0
2016-08-23T02:17:53.261Z,0
2016-08-23T02:18:53.245Z,0
2016-08-23T02:19:53.382Z,0
2016-08-23T02:20:53.398Z,0
2016-08-23T02:21:53.274Z,0
2016-08-23T02:22:54.000Z,0
2016-08-23T02:23:53.231Z,0
2016-08-23T02:24:53.396Z,0
2016-08-23T02:25:53.231Z,0
2016-08-23T02:26:53.260Z,0
2016-08-23T02:27:53.245Z,0
2016-08-23T02:28:53.228Z,0
2016-08-23T02:29:53.262Z,0
2016-08-23T02:30:53.198Z,0
2016-08-23T02:31:53.202Z,0
2016-08-23T02:32:53.417Z,0
2016-08-23T02:33:53.224Z,0
2016-08-23T02:34:53.903Z,0
2016-08-23T02:35:53.188Z,0
2016-08-23T02:36:53.196Z,0
2016-08-23T02:37:53.230Z,0
2016-08-23T02:38:53.192Z,0
2016-08-23T02:39:53.166Z,0
2016-08-23T02:40:53.891Z,0
2016-08-23T02:41:53.213Z,0
2016-08-23T02:42:53.182Z,0
2016-08-23T02:43:53.202Z,0
2016-08-23T02:44:53.208Z,0
2016-08-23T02:45:53.166Z,0
2016-08-23T02:46:53.164Z,0
2016-08-23T02:47:53.170Z,0
2016-08-23T02:48:53.165Z,0
2016-08-23T02:49:53.174Z,0
2016-08-23T02:50:56.196Z,0
2016-08-23T02:51:53.164Z,0
2016-08-23T02:52:53.196Z,0
2016-08-23T02:53:53.169Z,0
2016-08-23T02:54:53.152Z,0
2016-08-23T02:55:53.128Z,0
2016-08-23T02:56:53.112Z,0
2016-08-23T02:57:53.194Z,0
2016-08-23T02:58:53.165Z,0
2016-08-23T02:59:53.148Z,0
2016-08-23T03:00:53.982Z,0
2016-08-23T03:01:53.120Z,0
2016-08-23T03:02:53.153Z,0
2016-08-23T03:03:53.597Z,0
2016-08-23T03:04:53.164Z,0
2016-08-23T03:05:53.130Z,0
2016-08-23T03:06:53.099Z,0
2016-08-23T03:07:53.175Z,0
2016-08-23T03:08:53.132Z,0
2016-08-23T03:09:53.134Z,0
2016-08-23T03:10:53.136Z,0
2016-08-23T03:11:53.082Z,0
2016-08-23T03:12:53.110Z,0
2016-08-23T03:13:53.843Z,0
2016-08-23T03:14:53.109Z,0
2016-08-23T03:15:53.098Z,0
2016-08-23T03:16:53.058Z,0
2016-08-23T03:17:53.781Z,0
2016-08-23T03:18:53.110Z,0
2016-08-23T03:19:53.048Z,0
2016-08-23T03:20:53.082Z,0
2016-08-23T03:21:53.063Z,0
2016-08-23T03:22:53.059Z,0
2016-08-23T03:23:53.134Z,0
2016-08-23T03:24:53.032Z,0
2016-08-23T03:25:53.069Z,0
2016-08-23T03:26:53.035Z,0
2016-08-23T03:27:53.033Z,0
2016-08-23T03:28:53.837Z,0
2016-08-23T03:29:53.017Z,0
2016-08-23T03:30:53.054Z,0
2016-08-23T03:31:53.761Z,0
2016-08-23T03:32:52.998Z,0
2016-08-23T03:33:52.998Z,0
2016-08-23T03:34:52.996Z,0
2016-08-23T03:35:53.009Z,0
2016-08-23T03:36:52.991Z,0
2016-08-23T03:37:53.040Z,0
2016-08-23T03:38:53.046Z,0
2016-08-23T03:39:53.063Z,0
2016-08-23T03:40:53.840Z,0
2016-08-23T03:41:53.023Z,0
2016-08-23T03:42:53.021Z,0
2016-08-23T03:43:53.030Z,0
2016-08-23T03:44:53.000Z,0
2016-08-23T03:45:52.980Z,0
2016-08-23T03:46:52.957Z,0
2016-08-23T03:47:53.681Z,0
2016-08-23T03:48:53.184Z,0
2016-08-23T03:49:52.970Z,0
2016-08-23T03:50:55.266Z,0
2016-08-23T03:51:52.922Z,0
2016-08-23T03:52:52.924Z,0
2016-08-23T03:53:53.679Z,0
2016-08-23T03:54:52.917Z,0
2016-08-23T03:55:52.902Z,0
2016-08-23T03:56:52.949Z,0
2016-08-23T03:57:52.924Z,0
2016-08-23T03:58:52.954Z,0
2016-08-23T03:59:52.943Z,0
2016-08-23T04:00:52.956Z,0
2016-08-23T04:01:52.935Z,0
2016-08-23T04:02:52.921Z,0
2016-08-23T04:03:52.907Z,0
2016-08-23T04:04:52.915Z,0
2016-08-23T04:05:52.987Z,0
2016-08-23T04:06:53.770Z,0
2016-08-23T04:07:52.899Z,0
2016-08-23T04:08:52.880Z,0
2016-08-23T04:09:52.910Z,0
2016-08-23T04:10:52.888Z,0
2016-08-23T04:11:52.933Z,0
2016-08-23T04:12:52.897Z,0
2016-08-23T04:13:52.868Z,0
2016-08-23T04:14:52.888Z,0
2016-08-23T04:15:52.868Z,0
2016-08-23T04:16:52.891Z,0
2016-08-23T04:17:52.893Z,0
2016-08-23T04:18:52.882Z,0
2016-08-23T04:19:53.748Z,0
2016-08-23T04:20:52.888Z,0
2016-08-23T04:21:52.879Z,5
2016-08-23T04:22:52.848Z,5
2016-08-23T04:23:52.868Z,5
2016-08-23T04:24:52.859Z,5
2016-08-23T04:25:52.854Z,5
2016-08-23T04:26:53.604Z,5
2016-08-23T04:27:52.836Z,5
2016-08-23T04:28:52.878Z,5
2016-08-23T04:29:52.864Z,5
2016-08-23T04:30:52.807Z,5
2016-08-23T04:31:52.807Z,5
2016-08-23T04:32:53.667Z,10
2016-08-23T04:33:52.809Z,10
2016-08-23T04:34:52.823Z,10
2016-08-23T04:35:52.826Z,10
2016-08-23T04:36:52.800Z,10
2016-08-23T04:37:52.808Z,15
2016-08-23T04:38:52.772Z,15
2016-08-23T04:39:52.764Z,15
2016-08-23T04:40:52.787Z,15
2016-08-23T04:41:53.732Z,15
2016-08-23T04:42:52.806Z,15
2016-08-23T04:43:52.790Z,15
2016-08-23T04:44:52.781Z,15
2016-08-23T04:45:52.797Z,20
2016-08-23T04:46:52.767Z,20
2016-08-23T04:47:52.777Z,20
2016-08-23T04:48:52.740Z,20
2016-08-23T04:49:52.757Z,25
2016-08-23T04:50:52.760Z,25
2016-08-23T04:51:52.793Z,25
2016-08-23T04:52:52.729Z,25
2016-08-23T04:53:52.735Z,25
2016-08-23T04:54:52.748Z,25
2016-08-23T04:55:52.760Z,30
2016-08-23T04:56:52.727Z,30
2016-08-23T04:57:52.718Z,30
2016-08-23T04:58:52.711Z,30
2016-08-23T04:59:52.925Z,30
2016-08-23T05:00:52.699Z,30
2016-08-23T05:01:52.715Z,35
2016-08-23T05:02:53.521Z,35
2016-08-23T05:03:52.707Z,35
2016-08-23T05:04:52.703Z,40
2016-08-23T05:05:52.715Z,40
2016-08-23T05:06:52.693Z,40
2016-08-23T05:07:52.675Z,40
2016-08-23T05:08:52.777Z,45
2016-08-23T05:09:52.702Z,45
2016-08-23T05:10:52.655Z,45
2016-08-23T05:11:52.674Z,45
2016-08-23T05:12:52.713Z,45
2016-08-23T05:13:52.680Z,45
2016-08-23T05:14:52.766Z,50
2016-08-23T05:15:52.676Z,50
2016-08-23T05:16:52.704Z,50
2016-08-23T05:17:52.710Z,55
2016-08-23T05:18:52.664Z,55
2016-08-23T05:19:52.656Z,60
2016-08-23T05:20:53.510Z,60
2016-08-23T05:21:52.628Z,65
2016-08-23T05:22:52.636Z,65
2016-08-23T05:23:53.661Z,70
2016-08-23T05:24:52.630Z,70
2016-08-23T05:25:52.679Z,70
2016-08-23T05:26:52.653Z,75
2016-08-23T05:27:52.642Z,75
2016-08-23T05:28:52.677Z,75
2016-08-23T05:29:52.630Z,75
2016-08-23T05:30:52.616Z,75
2016-08-23T05:31:52.658Z,75
2016-08-23T05:32:53.595Z,80
2016-08-23T05:33:52.628Z,80
2016-08-23T05:34:52.766Z,80
2016-08-23T05:35:52.628Z,85
2016-08-23T05:36:52.590Z,90
2016-08-23T05:37:52.603Z,90
2016-08-23T05:38:52.678Z,90
2016-08-23T05:39:52.608Z,90
2016-08-23T05:40:52.569Z,95
2016-08-23T05:41:52.578Z,95
2016-08-23T05:42:52.575Z,95
2016-08-23T05:43:52.559Z,95
2016-08-23T05:44:52.602Z,95
2016-08-23T05:45:52.558Z,100
2016-08-23T05:46:52.559Z,95
2016-08-23T05:47:52.565Z,90
2016-08-23T05:48:52.572Z,90
2016-08-23T05:49:52.588Z,90
2016-08-23T05:50:52.545Z,85
2016-08-23T05:51:52.543Z,80
2016-08-23T05:52:52.558Z,75
2016-08-23T05:53:52.585Z,65
2016-08-23T05:54:52.563Z,60
2016-08-23T05:55:52.667Z,60
2016-08-23T05:56:53.278Z,60
2016-08-23T05:57:52.563Z,60
2016-08-23T05:58:52.535Z,65
2016-08-23T05:59:52.532Z,65
2016-08-23T06:00:52.534Z,65
2016-08-23T06:01:52.541Z,60
2016-08-23T06:02:52.530Z,55
2016-08-23T06:03:52.514Z,55
2016-08-23T06:04:52.526Z,55
2016-08-23T06:05:52.528Z,55
2016-08-23T06:06:52.521Z,55
2016-08-23T06:07:52.718Z,55
2016-08-23T06:08:52.519Z,55
2016-08-23T06:09:52.515Z,55
2016-08-23T06:10:52.494Z,55
2016-08-23T06:11:52.492Z,55
2016-08-23T06:12:52.495Z,55
2016-08-23T06:13:52.517Z,55
2016-08-23T06:14:52.482Z,55
2016-08-23T06:15:52.483Z,55
2016-08-23T06:16:52.504Z,55
2016-08-23T06:17:52.503Z,55
2016-08-23T06:18:52.495Z,55
2016-08-23T06:19:52.483Z,55
2016-08-23T06:20:52.458Z,55
2016-08-23T06:21:52.454Z,60
2016-08-23T06:22:52.471Z,60
2016-08-23T06:23:53.392Z,60
2016-08-23T06:24:52.477Z,60
2016-08-23T06:25:52.467Z,60
2016-08-23T06:26:52.466Z,60
2016-08-23T06:27:52.444Z,60
2016-08-23T06:28:53.333Z,60
2016-08-23T06:29:52.442Z,60
2016-08-23T06:30:52.428Z,60
2016-08-23T06:31:52.468Z,60
2016-08-23T06:32:52.440Z,60
2016-08-23T06:33:52.415Z,60
2016-08-23T06:34:52.440Z,60
2016-08-23T06:35:52.442Z,60
2016-08-23T06:36:52.434Z,60
2016-08-23T06:37:52.414Z,60
2016-08-23T06:38:52.422Z,60
2016-08-23T06:39:52.445Z,60
2016-08-23T06:40:53.552Z,65
2016-08-23T06:41:52.437Z,70
2016-08-23T06:42:53.370Z,75
2016-08-23T06:43:52.407Z,75
2016-08-23T06:44:52.399Z,80
2016-08-23T06:45:52.394Z,100
2016-08-23T06:46:52.381Z,100
2016-08-23T06:47:53.301Z,100
2016-08-23T06:48:52.385Z,85
2016-08-23T06:49:52.386Z,95
2016-08-23T06:50:53.318Z,85
2016-08-23T06:51:52.418Z,95
2016-08-23T06:52:52.379Z,120
2016-08-23T06:53:53.153Z,125
2016-08-23T06:54:52.365Z,115
2016-08-23T06:55:52.359Z,105
2016-08-23T06:56:52.358Z,100
2016-08-23T06:57:52.371Z,95
2016-08-23T06:58:52.369Z,90
2016-08-23T06:59:52.350Z,85
2016-08-23T07:00:52.358Z,85
2016-08-23T07:01:52.379Z,85
2016-08-23T07:02:52.349Z,85
2016-08-23T07:03:52.331Z,85
2016-08-23T07:04:53.056Z,85
2016-08-23T07:05:52.342Z,85
2016-08-23T07:06:52.327Z,85
2016-08-23T07:07:52.330Z,80
2016-08-23T07:08:52.405Z,80
2016-08-23T07:09:52.330Z,80
2016-08-23T07:10:52.319Z,80
2016-08-23T07:11:52.439Z,80
2016-08-23T07:12:52.324Z,80
2016-08-23T07:13:52.355Z,80
2016-08-23T07:14:53.031Z,80
2016-08-23T07:15:52.325Z,80
2016-08-23T07:16:53.163Z,80
2016-08-23T07:17:52.341Z,80
2016-08-23T07:18:52.336Z,80
2016-08-23T07:19:52.316Z,80
2016-08-23T07:20:52.319Z,80
2016-08-23T07:21:52.322Z,75
2016-08-23T07:22:52.320Z,75
2016-08-23T07:23:52.315Z,75
2016-08-23T07:24:52.550Z,75
2016-08-23T07:25:52.338Z,80
2016-08-23T07:26:52.328Z,80
2016-08-23T07:27:53.142Z,80
2016-08-23T07:28:52.342Z,80
2016-08-23T07:29:52.313Z,80
2016-08-23T07:30:52.323Z,80
2016-08-23T07:31:52.319Z,80
2016-08-23T07:32:52.348Z,80
2016-08-23T07:33:52.324Z,80
2016-08-23T07:34:52.308Z,80
2016-08-23T07:35:52.308Z,80
2016-08-23T07:36:52.325Z,80
2016-08-23T07:37:52.333Z,80
2016-08-23T07:38:52.328Z,80
2016-08-23T07:39:53.244Z,80
2016-08-23T07:40:52.330Z,80
2016-08-23T07:41:52.302Z,80
2016-08-23T07:42:53.133Z,80
2016-08-23T07:43:52.312Z,80
2016-08-23T07:44:53.016Z,80
2016-08-23T07:45:53.045Z,80
2016-08-23T07:46:52.306Z,80
2016-08-23T07:47:52.307Z,80
2016-08-23T07:48:52.314Z,80
2016-08-23T07:49:52.313Z,85
2016-08-23T07:50:52.312Z,85
2016-08-23T07:51:52.308Z,85
2016-08-23T07:52:52.323Z,85
2016-08-23T07:53:52.313Z,85
2016-08-23T07:54:52.318Z,85
2016-08-23T07:55:52.307Z,85
2016-08-23T07:56:53.252Z,85
2016-08-23T07:57:52.372Z,85
2016-08-23T07:58:52.356Z,85
2016-08-23T07:59:52.426Z,85
2016-08-23T08:00:52.296Z,85
2016-08-23T08:01:52.312Z,85
2016-08-23T08:02:52.310Z,85
2016-08-23T08:03:52.292Z,85
2016-08-23T08:04:52.316Z,85
2016-08-23T08:05:52.310Z,85
2016-08-23T08:06:52.313Z,85
2016-08-23T08:07:53.241Z,85
2016-08-23T08:08:52.314Z,85
2016-08-23T08:09:52.301Z,85
2016-08-23T08:10:53.126Z,85
2016-08-23T08:11:52.311Z,85
2016-08-23T08:12:52.311Z,85
2016-08-23T08:13:52.310Z,85
2016-08-23T08:14:52.305Z,85
2016-08-23T08:15:52.314Z,85
2016-08-23T08:16:52.321Z,85
2016-08-23T08:17:52.315Z,85
2016-08-23T08:18:53.086Z,85
2016-08-23T08:19:52.306Z,85
2016-08-23T08:20:52.328Z,85
2016-08-23T08:21:52.414Z,85
2016-08-23T08:22:52.311Z,85
2016-08-23T08:23:53.406Z,85
2016-08-23T08:24:52.443Z,85
2016-08-23T08:25:52.317Z,85
2016-08-23T08:26:52.298Z,85
2016-08-23T08:27:52.300Z,85
2016-08-23T08:28:53.251Z,85
2016-08-23T08:29:52.314Z,85
2016-08-23T08:30:52.422Z,90
2016-08-23T08:31:53.431Z,85
2016-08-23T08:32:53.226Z,85
2016-08-23T08:33:52.401Z,85
2016-08-23T08:34:52.319Z,85
2016-08-23T08:35:52.310Z,85
2016-08-23T08:36:52.318Z,90
2016-08-23T08:37:52.324Z,90
2016-08-23T08:38:52.313Z,90
2016-08-23T08:39:52.302Z,90
2016-08-23T08:40:52.321Z,85
2016-08-23T08:41:52.301Z,85
2016-08-23T08:42:52.319Z,85
2016-08-23T08:43:52.377Z,90
2016-08-23T08:44:52.339Z,90
2016-08-23T08:45:52.302Z,85
2016-08-23T08:46:52.303Z,90
2016-08-23T08:47:52.313Z,95
2016-08-23T08:48:52.302Z,95
2016-08-23T08:49:52.303Z,95
2016-08-23T08:50:52.320Z,95
2016-08-23T08:51:52.313Z,100
2016-08-23T08:52:52.315Z,105
2016-08-23T08:53:52.324Z,105
2016-08-23T08:54:52.329Z,110
2016-08-23T08:55:52.314Z,105
2016-08-23T08:56:52.302Z,100
2016-08-23T08:57:52.323Z,100
2016-08-23T08:58:52.308Z,95
2016-08-23T08:59:52.301Z,95
2016-08-23T09:00:52.310Z,100
2016-08-23T09:01:52.322Z,100
2016-08-23T09:02:52.331Z,105
2016-08-23T09:03:52.302Z,105
2016-08-23T09:04:52.306Z,115
2016-08-23T09:05:52.314Z,135
2016-08-23T09:06:52.457Z,145
2016-08-23T09:07:53.407Z,165
2016-08-23T09:08:52.370Z,175
2016-08-23T09:09:52.304Z,185
2016-08-23T09:10:52.421Z,180
2016-08-23T09:11:52.313Z,150
2016-08-23T09:12:52.332Z,145
2016-08-23T09:13:52.330Z,140
2016-08-23T09:14:52.324Z,125
2016-08-23T09:15:52.324Z,110
2016-08-23T09:16:52.328Z,105
2016-08-23T09:17:54.521Z,100
2016-08-23T09:18:52.457Z,100
2016-08-23T09:19:52.339Z,100
2016-08-23T09:20:52.323Z,100
2016-08-23T09:21:52.339Z,95
2016-08-23T09:22:52.493Z,85
2016-08-23T09:23:53.518Z,85
2016-08-23T09:24:53.645Z,95
2016-08-23T09:25:52.879Z,90
2016-08-23T09:26:52.354Z,95
2016-08-23T09:27:52.352Z,95
2016-08-23T09:28:52.406Z,95
2016-08-23T09:29:53.636Z,95
2016-08-23T09:30:52.510Z,100
2016-08-23T09:31:52.452Z,105
2016-08-23T09:32:52.611Z,110
2016-08-23T09:33:52.335Z,115
2016-08-23T09:34:52.413Z,120
2016-08-23T09:35:52.429Z,120
2016-08-23T09:36:53.538Z,115
2016-08-23T09:37:52.341Z,115
2016-08-23T09:38:52.346Z,120
2016-08-23T09:39:52.351Z,125
2016-08-23T09:40:52.348Z,125
2016-08-23T09:41:52.358Z,140
2016-08-23T09:42:53.877Z,150
2016-08-23T09:43:52.337Z,165
2016-08-23T09:44:52.348Z,155
2016-08-23T09:45:54.196Z,145
2016-08-23T09:46:52.334Z,140
2016-08-23T09:47:52.344Z,145
2016-08-23T09:48:52.345Z,150
2016-08-23T09:49:52.352Z,145
2016-08-23T09:50:52.404Z,145
2016-08-23T09:51:52.349Z,150
2016-08-23T09:52:52.361Z,160
2016-08-23T09:53:52.446Z,170
2016-08-23T09:54:54.598Z,185
2016-08-23T09:56:07.225Z,215
2016-08-23T09:56:52.401Z,230
2016-08-23T09:57:52.376Z,225
2016-08-23T09:58:52.370Z,215
2016-08-23T09:59:52.355Z,210
2016-08-23T10:00:52.611Z,210
2016-08-23T10:01:52.418Z,200
2016-08-23T10:02:52.461Z,180
2016-08-23T10:03:52.545Z,155
2016-08-23T10:04:52.490Z,135
2016-08-23T10:05:52.572Z,115
2016-08-23T10:06:52.479Z,120
2016-08-23T10:07:52.425Z,120
2016-08-23T10:08:52.434Z,115
2016-08-23T10:09:52.456Z,105
2016-08-23T10:10:52.480Z,110
2016-08-23T10:11:52.371Z,115
2016-08-23T10:12:52.431Z,120
2016-08-23T10:13:53.359Z,130
2016-08-23T10:14:53.353Z,145
2016-08-23T10:15:52.518Z,150
2016-08-23T10:16:52.445Z,150
2016-08-23T10:17:52.419Z,155
2016-08-23T10:18:52.453Z,140
2016-08-23T10:19:52.354Z,135
2016-08-23T10:20:52.357Z,135
2016-08-23T10:21:53.093Z,130
2016-08-23T10:22:52.386Z,125
2016-08-23T10:23:52.393Z,115
2016-08-23T10:24:52.383Z,105
2016-08-23T10:25:52.492Z,100
2016-08-23T10:26:52.495Z,105
2016-08-23T10:27:52.396Z,100
2016-08-23T10:28:52.391Z,100
2016-08-23T10:29:52.493Z,105
2016-08-23T10:30:52.491Z,100
2016-08-23T10:31:52.443Z,95
2016-08-23T10:32:52.393Z,95
2016-08-23T10:33:52.469Z,95
2016-08-23T10:34:52.471Z,90
2016-08-23T10:35:52.460Z,95
2016-08-23T10:36:52.459Z,95
2016-08-23T10:37:52.409Z,95
2016-08-23T10:38:52.400Z,95
2016-08-23T10:39:52.437Z,95
2016-08-23T10:40:52.418Z,95
2016-08-23T10:41:52.432Z,95
2016-08-23T10:42:52.486Z,95
2016-08-23T10:43:53.348Z,95
2016-08-23T10:44:54.603Z,90
2016-08-23T10:45:53.581Z,90
2016-08-23T10:46:52.543Z,90
2016-08-23T10:47:52.485Z,90
2016-08-23T10:48:52.502Z,90
2016-08-23T10:49:52.447Z,90
2016-08-23T10:50:52.525Z,90
2016-08-23T10:51:52.396Z,90
2016-08-23T10:52:52.568Z,90
2016-08-23T10:53:52.694Z,95
2016-08-23T10:54:53.513Z,95
2016-08-23T10:55:52.488Z,100
2016-08-23T10:56:52.514Z,100
2016-08-23T10:57:52.569Z,100
2016-08-23T10:58:53.449Z,95
2016-08-23T10:59:52.767Z,95
2016-08-23T11:00:52.460Z,95
2016-08-23T11:01:53.252Z,95
2016-08-23T11:02:52.454Z,90
2016-08-23T11:03:52.442Z,95
2016-08-23T11:04:52.465Z,90
2016-08-23T11:05:52.507Z,90
2016-08-23T11:06:54.502Z,90
2016-08-23T11:07:54.221Z,90
2016-08-23T11:08:53.560Z,90
2016-08-23T11:09:52.730Z,90
2016-08-23T11:10:52.724Z,90
2016-08-23T11:12:08.378Z,90
2016-08-23T11:12:53.765Z,90
2016-08-23T11:13:54.196Z,90
2016-08-23T11:14:52.468Z,90
2016-08-23T11:15:53.804Z,90
2016-08-23T11:16:53.067Z,95
2016-08-23T11:17:52.818Z,95
2016-08-23T11:18:52.473Z,100
2016-08-23T11:19:52.463Z,100
2016-08-23T11:20:52.475Z,100
2016-08-23T11:21:52.480Z,100
2016-08-23T11:22:53.065Z,100
2016-08-23T11:23:52.529Z,100
2016-08-23T11:24:53.351Z,100
2016-08-23T11:25:52.832Z,100
2016-08-23T11:26:52.711Z,100
2016-08-23T11:27:53.958Z,105
2016-08-23T11:28:54.595Z,100
2016-08-23T11:29:52.827Z,100
2016-08-23T11:30:53.652Z,100
2016-08-23T11:31:52.547Z,105
2016-08-23T11:32:52.488Z,100
2016-08-23T11:33:52.813Z,100
2016-08-23T11:34:52.527Z,100
2016-08-23T11:35:52.483Z,100
2016-08-23T11:36:52.507Z,100
2016-08-23T11:37:52.515Z,100
2016-08-23T11:38:52.543Z,100
2016-08-23T11:39:52.532Z,100
2016-08-23T11:40:52.778Z,100
2016-08-23T11:41:52.520Z,100
2016-08-23T11:42:52.517Z,100
2016-08-23T11:43:52.544Z,100
2016-08-23T11:44:52.570Z,100
2016-08-23T11:45:54.991Z,100
2016-08-23T11:46:53.362Z,105
2016-08-23T11:47:52.531Z,105
2016-08-23T11:48:56.626Z,105
2016-08-23T11:49:53.747Z,105
2016-08-23T11:50:54.305Z,110
2016-08-23T11:51:52.724Z,110
2016-08-23T11:52:52.520Z,110
2016-08-23T11:53:52.534Z,110
2016-08-23T11:54:52.531Z,105
2016-08-23T11:55:53.228Z,105
2016-08-23T11:56:54.060Z,105
2016-08-23T11:57:52.537Z,105
2016-08-23T11:58:54.262Z,105
2016-08-23T11:59:52.588Z,105
2016-08-23T12:00:52.588Z,105
2016-08-23T12:01:52.550Z,105
2016-08-23T12:02:52.556Z,105
2016-08-23T12:03:52.578Z,100
2016-08-23T12:04:52.542Z,100
2016-08-23T12:05:52.580Z,100
2016-08-23T12:06:52.555Z,100
2016-08-23T12:07:52.554Z,100
2016-08-23T12:08:52.555Z,105
2016-08-23T12:09:53.056Z,105
2016-08-23T12:10:54.523Z,100
2016-08-23T12:11:53.129Z,100
2016-08-23T12:12:52.628Z,100
2016-08-23T12:13:52.559Z,105
2016-08-23T12:14:52.630Z,105
2016-08-23T12:15:52.611Z,105
2016-08-23T12:16:52.614Z,105
2016-08-23T12:17:53.296Z,105
2016-08-23T12:18:52.563Z,105
2016-08-23T12:19:52.596Z,100
2016-08-23T12:20:52.613Z,100
2016-08-23T12:21:52.617Z,95
2016-08-23T12:22:52.591Z,95
2016-08-23T12:23:52.630Z,95
2016-08-23T12:24:52.579Z,95
2016-08-23T12:25:52.606Z,95
2016-08-23T12:26:52.598Z,95
2016-08-23T12:27:52.638Z,95
2016-08-23T12:28:52.607Z,95
2016-08-23T12:29:52.640Z,95
2016-08-23T12:30:52.606Z,100
2016-08-23T12:31:52.585Z,100
2016-08-23T12:32:52.650Z,100
2016-08-23T12:33:53.613Z,100
2016-08-23T12:34:53.009Z,100
2016-08-23T12:35:52.621Z,100
2016-08-23T12:36:52.621Z,95
2016-08-23T12:37:53.020Z,90
2016-08-23T12:38:53.385Z,90
2016-08-23T12:39:55.062Z,85
2016-08-23T12:40:52.603Z,85
2016-08-23T12:41:53.337Z,85
2016-08-23T12:42:52.624Z,85
2016-08-23T12:43:52.642Z,85
2016-08-23T12:44:53.327Z,85
2016-08-23T12:45:52.637Z,85
2016-08-23T12:46:52.648Z,85
2016-08-23T12:47:52.682Z,90
2016-08-23T12:48:52.640Z,90
2016-08-23T12:49:52.612Z,90
2016-08-23T12:50:52.628Z,90
2016-08-23T12:51:53.370Z,90
2016-08-23T12:52:52.705Z,90
2016-08-23T12:53:52.676Z,90
2016-08-23T12:54:53.115Z,90
2016-08-23T12:55:52.646Z,90
2016-08-23T12:56:52.668Z,85
2016-08-23T12:57:52.697Z,90
2016-08-23T12:58:52.671Z,90
2016-08-23T12:59:52.653Z,90
2016-08-23T13:00:52.645Z,90
2016-08-23T13:01:53.895Z,90
2016-08-23T13:02:55.215Z,90
2016-08-23T13:03:54.476Z,90
2016-08-23T13:04:54.167Z,90
2016-08-23T13:05:53.373Z,90
2016-08-23T13:06:52.856Z,90
2016-08-23T13:07:52.847Z,90
2016-08-23T13:08:52.842Z,90
2016-08-23T13:09:52.841Z,90
2016-08-23T13:10:53.425Z,90
2016-08-23T13:11:55.535Z,90
2016-08-23T13:12:52.849Z,90
2016-08-23T13:13:52.845Z,90
2016-08-23T13:14:53.678Z,90
2016-08-23T13:15:56.408Z,95
2016-08-23T13:16:56.264Z,95
2016-08-23T13:17:52.842Z,95
2016-08-23T13:18:52.998Z,95
2016-08-23T13:19:52.889Z,95
2016-08-23T13:20:52.843Z,95
2016-08-23T13:21:55.515Z,95
2016-08-23T13:23:10.636Z,95
2016-08-23T13:23:56.136Z,95
2016-08-23T13:25:09.583Z,90
2016-08-23T13:25:56.168Z,90
2016-08-23T13:26:52.829Z,90
2016-08-23T13:27:52.862Z,90
2016-08-23T13:28:52.968Z,90
2016-08-23T13:29:54.572Z,90
2016-08-23T13:30:53.540Z,85
2016-08-23T13:31:53.905Z,85
2016-08-23T13:32:53.047Z,85
2016-08-23T13:33:53.245Z,85
2016-08-23T13:34:53.139Z,90
2016-08-23T13:35:54.457Z,90
2016-08-23T13:36:53.011Z,95
2016-08-23T13:37:52.992Z,95
2016-08-23T13:38:53.175Z,95
2016-08-23T13:39:52.958Z,95
2016-08-23T13:40:53.019Z,95
2016-08-23T13:41:53.724Z,100
2016-08-23T13:42:55.445Z,105
2016-08-23T13:43:56.129Z,105
2016-08-23T13:44:54.267Z,110
2016-08-23T13:45:54.606Z,110
2016-08-23T13:46:54.767Z,110
2016-08-23T13:47:53.294Z,105
2016-08-23T13:48:55.531Z,105
2016-08-23T13:50:09.745Z,100
2016-08-23T13:50:55.395Z,95
2016-08-23T13:51:52.979Z,95
2016-08-23T13:52:52.996Z,95
2016-08-23T13:53:53.016Z,95
2016-08-23T13:54:54.382Z,100
2016-08-23T13:55:55.757Z,100
2016-08-23T13:56:53.591Z,105
2016-08-23T13:57:53.106Z,105
2016-08-23T13:58:54.852Z,105
2016-08-23T13:59:53.097Z,110
2016-08-23T14:00:53.070Z,110
2016-08-23T14:01:53.086Z,105
2016-08-23T14:02:53.099Z,110
2016-08-23T14:03:53.871Z,105
2016-08-23T14:04:53.073Z,110
2016-08-23T14:05:55.710Z,115
2016-08-23T14:06:54.814Z,110
2016-08-23T14:07:53.143Z,120
2016-08-23T14:08:52.990Z,135
2016-08-23T14:09:53.103Z,140
2016-08-23T14:10:53.138Z,150
2016-08-23T14:11:54.116Z,160
2016-08-23T14:12:53.020Z,175
2016-08-23T14:13:54.866Z,180
2016-08-23T14:14:54.935Z,180
2016-08-23T14:15:55.681Z,175
2016-08-23T14:16:55.736Z,170
2016-08-23T14:17:53.117Z,170
2016-08-23T14:18:53.104Z,180